Trovoada Desde: 26-09-2018 12:00 Até: 21:59 Aviso por: Trovoada Nivel: Amarelo info button
 

Nearby METAR Reports

 

LEZL - Sevilla, Spain
Distance from station: ENE 8km
Actualizado: 26/09/2018 16:00
Céu limpo
Céu limpo
 Vento de SE
Vento: SE 13 km/h
Temperatura: 34°C
Ponto de Orvalho: 15°C
Humidade: 32%
Barómetro: 1020 hPa
Resumo: Céu limpo
Visibility: greater than 10 km
2018/09/26 14:00 LEZL 261400Z 13007KT 060V170 CAVOK 34/15 Q1020 NOSIG
LEMO - Morón, Spain
Distance from station: SE 43km
Actualizado: 26/09/2018 16:00
Céu limpo
Céu limpo
 Vento de ESE
Vento: ESE 13 km/h
Temperatura: 33°C
Ponto de Orvalho: 14°C
Humidade: 32%
Barómetro: 1021 hPa
Resumo: Céu limpo
Visibility: greater than 10 km
2018/09/26 14:00 LEMO 261400Z 12007KT 060V210 CAVOK 33/14 Q1021 NOSIG
LEJR - Jeréz, Spain
Distance from station: S 71km
Actualizado: 26/09/2018 16:30
Few Clouds
Few Clouds
 Vento de ESE
Vento: ESE 28 km/h
Temperatura: 33°C
Ponto de Orvalho: 15°C
Humidade: 34%
Barómetro: 1020 hPa
Clouds: Few Clouds
Visibility: 10 km
Cloud details: Few Clouds 914 m
2018/09/26 14:30 LEJR 261430Z 11015KT 070V150 9999 FEW030 33/15 Q1020
 
LERT - Rota, Spain
Distance from station: SSW 89km
Actualizado: 26/09/2018 16:00
Céu limpo
Céu limpo
 Vento de ESE
Vento: ESE 46 km/h
Temperatura: 31°C
Índice de Calor: 32°C
Ponto de Orvalho: 17°C
Humidade: 43%
Barómetro: 1020 hPa
Resumo: Céu limpo
Visibility: greater than 10 km
2018/09/26 14:00 LERT 261400Z 11025KT 080V140 CAVOK 31/17 Q1020 NOSIG
LEMG - Málaga, Spain
Distance from station: ESE 157km
Actualizado: 26/09/2018 16:30
Parcialmente nublado
Parcialmente nublado
 Vento de ESE
Vento: ESE 17 km/h
Temperatura: 27°C
Índice de Calor: 29°C
Ponto de Orvalho: 21°C
Humidade: 70%
Barómetro: 1024 hPa
Clouds: Parcialmente nublado
Visibility: 10 km
Cloud details: Parcialmente nublado 610 m
2018/09/26 14:30 LEMG 261430Z 12009KT 080V150 9999 SCT020 27/21 Q1024 NOSIG
LEBA - Córdoba, Spain
Distance from station: ENE 115km
Actualizado: 26/09/2018 16:30
Few Clouds
Few Clouds
 Vento de NNE
Vento: NNE 4 km/h
Temperatura: 33°C
Ponto de Orvalho: 17°C
Humidade: 38%
Barómetro: 1021 hPa
Clouds: Few Clouds
Visibility: 10 km
Cloud details: Few Clouds 1372 m
2018/09/26 14:30 LEBA 261430Z 02002KT 9999 FEW045 33/17 Q1021
 
LEGR - Granada, Spain
Distance from station: E 198km
Actualizado: 26/09/2018 16:30
Thunderstorm rain, Muito nublado
Thunderstorm rain, Muito nublado
 Vento de SW
Vento: SW 15 km/h
Temperatura: 24°C
Ponto de Orvalho: 19°C
Humidade: 74%
Barómetro: 1024 hPa
Resumo: Thunderstorm Rain
Clouds: Muito nublado
Visibility: 10 km
Cloud details: Few Clouds 914 m
Muito nublado 1524 m
2018/09/26 14:30 LEGR 261430Z 22008KT 190V250 9999 TSRA FEW030CB BKN050 24/19 Q1024
LEAM - Almería, Spain
Distance from station: E 326km
Actualizado: 26/09/2018 16:30
Few Clouds
Few Clouds
 Vento de ENE
Vento: ENE 39 km/h
Temperatura: 30°C
Índice de Calor: 30°C
Ponto de Orvalho: 16°C
Humidade: 43%
Barómetro: 1023 hPa
Clouds: Few Clouds
Visibility: 10 km
Cloud details: Few Clouds 610 m
Few Clouds 1219 m
2018/09/26 14:30 LEAM 261430Z 07021KT 040V100 9999 FEW020 FEW040TCU 30/16 Q1023
LEMD - Madrid/Barajas, Spain
Distance from station: NNE 402km
Actualizado: 26/09/2018 16:30
Parcialmente nublado
Parcialmente nublado
 Vento de S
Vento: S 9 km/h
Temperatura: 27°C
Índice de Calor: 27°C
Ponto de Orvalho: 15°C
Humidade: 48%
Barómetro: 1027 hPa
Clouds: Parcialmente nublado
Visibility: 10 km
Cloud details: Parcialmente nublado 1524 m
2018/09/26 14:30 LEMD 261430Z 17005KT 100V260 9999 SCT050 27/15 Q1027 NOSIG
 
LEVD - Valladolid, Spain
Distance from station: N 492km
Actualizado: 26/09/2018 16:30
Few Clouds
Few Clouds
 Vento de WSW
Vento: WSW 17 km/h
Temperatura: 27°C
Ponto de Orvalho: 11°C
Humidade: 37%
Barómetro: 1026 hPa
Clouds: Few Clouds
Visibility: 10 km
Cloud details: Few Clouds 1829 m
2018/09/26 14:30 LEVD 261430Z 25009KT 210V280 9999 FEW060TCU 27/11 Q1026
LEBL - Barcelona, Spain
Distance from station: NE 816km
Actualizado: 26/09/2018 16:30
Few Clouds
Few Clouds
 Vento de E
Vento: E 26 km/h
Temperatura: 24°C
Ponto de Orvalho: 15°C
Humidade: 57%
Barómetro: 1031 hPa
Clouds: Few Clouds
Visibility: 10 km
Cloud details: Few Clouds 914 m
2018/09/26 14:30 LEBL 261430Z 08014KT 060V120 9999 FEW030 24/15 Q1031 NOSIG
LEVC - Valencia, Spain
Distance from station: ENE 535km
Actualizado: 26/09/2018 16:30
Parcialmente nublado
Parcialmente nublado
 Vento de ENE
Vento: ENE 30 km/h
Temperatura: 25°C
Ponto de Orvalho: 17°C
Humidade: 61%
Barómetro: 1029 hPa
Clouds: Parcialmente nublado
Visibility: 10 km
Cloud details: Parcialmente nublado 914 m
2018/09/26 14:30 LEVC 261430Z 07016KT 040V100 9999 SCT030 25/17 Q1029 NOSIG